createdAt,value
2022-08-07T00:01:00.153Z,1.65
2022-08-07T00:04:15.724Z,1.60
2022-08-07T00:07:18.953Z,1.60
2022-08-07T00:10:27.231Z,1.40
2022-08-07T00:13:33.628Z,1.70
2022-08-07T00:16:42.969Z,1.52
2022-08-07T00:20:01.568Z,1.80
2022-08-07T00:23:09.040Z,1.60
2022-08-07T00:26:18.565Z,1.40
2022-08-07T00:29:33.859Z,1.50
2022-08-07T00:32:40.903Z,1.77
2022-08-07T00:35:46.575Z,1.65
2022-08-07T00:38:51.941Z,1.52
2022-08-07T00:42:02.270Z,1.65
2022-08-07T00:45:10.949Z,1.47
2022-08-07T00:48:18.980Z,1.40
2022-08-07T00:51:58.556Z,1.85
2022-08-07T00:54:53.841Z,1.50
2022-08-07T00:57:56.785Z,1.63
2022-08-07T01:01:01.516Z,1.40
2022-08-07T01:04:07.433Z,1.70
2022-08-07T01:07:11.881Z,1.83
2022-08-07T01:10:15.738Z,1.83
2022-08-07T01:13:21.848Z,1.73
2022-08-07T01:16:30.493Z,1.40
2022-08-07T01:19:38.464Z,1.90
2022-08-07T01:22:54.086Z,2.10
2022-08-07T01:26:05.163Z,1.60
2022-08-07T01:29:08.721Z,1.85
2022-08-07T01:32:13.583Z,2.03
2022-08-07T01:35:19.983Z,2.08
2022-08-07T01:38:29.571Z,2.00
2022-08-07T01:41:55.211Z,1.77
2022-08-07T01:45:10.072Z,1.77
2022-08-07T01:48:30.328Z,1.90
2022-08-07T01:52:04.055Z,2.13
2022-08-07T01:55:00.887Z,1.80
2022-08-07T01:58:27.838Z,2.10
2022-08-07T02:02:02.876Z,1.77
2022-08-07T02:05:09.273Z,2.00
2022-08-07T02:08:23.787Z,1.92
2022-08-07T02:11:31.097Z,2.20
2022-08-07T02:14:55.092Z,1.92
2022-08-07T02:18:14.865Z,1.98
2022-08-07T02:21:22.555Z,2.07
2022-08-07T02:24:25.429Z,2.03
2022-08-07T02:27:34.190Z,1.92
2022-08-07T02:30:39.152Z,2.10
2022-08-07T02:34:01.705Z,2.08
2022-08-07T02:37:08.801Z,2.47
2022-08-07T02:40:30.503Z,2.13
2022-08-07T02:43:39.622Z,2.17
2022-08-07T02:46:46.754Z,2.30
2022-08-07T02:49:59.605Z,1.75
2022-08-07T02:53:15.305Z,2.10
2022-08-07T02:56:21.886Z,2.25
2022-08-07T02:59:27.911Z,2.08
2022-08-07T03:02:37.101Z,2.35
2022-08-07T03:05:46.367Z,2.60
2022-08-07T03:08:51.650Z,2.30
2022-08-07T03:11:58.052Z,2.38
2022-08-07T03:15:09.024Z,2.20
2022-08-07T03:18:17.458Z,2.55
2022-08-07T03:21:24.527Z,2.60
2022-08-07T03:24:28.668Z,2.37
2022-08-07T03:27:42.190Z,2.30
2022-08-07T03:31:24.560Z,2.60
2022-08-07T03:34:33.865Z,2.50
2022-08-07T03:37:46.418Z,2.75
2022-08-07T03:41:00.503Z,2.60
2022-08-07T03:44:05.435Z,2.40
2022-08-07T03:47:22.839Z,2.60
2022-08-07T03:50:28.685Z,2.70
2022-08-07T03:54:05.833Z,2.80
2022-08-07T03:57:07.351Z,2.50
2022-08-07T04:00:12.193Z,3.05
2022-08-07T04:03:49.910Z,2.53
2022-08-07T04:06:55.009Z,2.55
2022-08-07T04:10:02.808Z,2.70
2022-08-07T04:13:07.800Z,2.67
2022-08-07T04:16:31.058Z,2.60
2022-08-07T04:19:52.500Z,2.90
2022-08-07T04:23:01.966Z,2.67
2022-08-07T04:26:13.308Z,2.90
2022-08-07T04:29:19.876Z,2.50
2022-08-07T04:32:34.132Z,2.75
2022-08-07T04:35:39.710Z,2.85
2022-08-07T04:38:49.217Z,2.80
2022-08-07T04:41:53.963Z,2.63
2022-08-07T04:45:02.845Z,2.30
2022-08-07T04:48:39.631Z,2.70
2022-08-07T04:52:00.203Z,2.65
2022-08-07T04:58:13.072Z,2.70
2022-08-07T04:59:17.830Z,2.47
2022-08-07T05:02:47.748Z,2.50
2022-08-07T05:06:19.482Z,2.42
2022-08-07T05:09:45.886Z,2.50
2022-08-07T05:14:45.636Z,2.50
2022-08-07T05:16:33.070Z,2.50
2022-08-07T05:19:45.350Z,2.50
2022-08-07T05:22:52.960Z,2.60
2022-08-07T05:26:13.259Z,2.83
2022-08-07T05:29:27.419Z,2.70
2022-08-07T05:32:47.156Z,2.47
2022-08-07T05:35:51.859Z,2.33
2022-08-07T05:38:59.412Z,2.95
2022-08-07T05:42:08.910Z,2.75
2022-08-07T05:45:46.307Z,2.40
2022-08-07T05:48:58.620Z,2.50
2022-08-07T05:52:04.805Z,2.77
2022-08-07T05:55:14.403Z,2.63
2022-08-07T05:58:36.147Z,2.60
2022-08-07T06:01:42.082Z,2.35
2022-08-07T06:04:51.325Z,2.60
2022-08-07T06:08:14.818Z,2.50
2022-08-07T06:11:23.661Z,2.50
2022-08-07T06:14:28.742Z,2.35
2022-08-07T06:17:38.152Z,2.42
2022-08-07T06:20:50.546Z,2.42
2022-08-07T06:24:52.492Z,2.43
2022-08-07T06:28:00.185Z,2.30
2022-08-07T06:30:58.226Z,2.53
2022-08-07T06:34:01.883Z,2.35
2022-08-07T06:37:04.652Z,2.08
2022-08-07T06:40:20.109Z,2.00
2022-08-07T06:43:26.701Z,2.08
2022-08-07T06:46:44.076Z,2.15
2022-08-07T06:49:58.578Z,2.20
2022-08-07T06:53:49.272Z,1.95
2022-08-07T06:56:48.435Z,2.30
2022-08-07T07:00:13.502Z,2.17
2022-08-07T07:03:39.551Z,2.40
2022-08-07T07:07:00.432Z,2.17
2022-08-07T07:10:04.505Z,2.00
2022-08-07T07:13:56.291Z,2.30
2022-08-07T07:16:53.642Z,2.22
2022-08-07T07:19:59.780Z,2.15
2022-08-07T07:24:09.519Z,2.45
2022-08-07T07:26:34.177Z,2.50
2022-08-07T07:30:08.933Z,2.70
2022-08-07T07:33:07.939Z,2.45
2022-08-07T07:36:13.373Z,2.45
2022-08-07T07:39:22.719Z,2.33
2022-08-07T07:42:32.780Z,2.30
2022-08-07T07:46:37.564Z,2.60
2022-08-07T07:49:09.109Z,2.35
2022-08-07T07:52:27.147Z,2.30
2022-08-07T07:55:37.812Z,2.42
2022-08-07T07:58:48.914Z,2.92
2022-08-07T08:02:02.946Z,2.43
2022-08-07T08:05:14.294Z,2.40
2022-08-07T08:08:33.822Z,2.42
2022-08-07T08:11:47.281Z,2.40
2022-08-07T08:15:02.113Z,2.50
2022-08-07T08:18:17.176Z,2.23
2022-08-07T08:22:00.509Z,2.45
2022-08-07T08:25:41.986Z,2.58
2022-08-07T08:28:45.622Z,2.53
2022-08-07T08:31:59.345Z,2.38
2022-08-07T08:35:19.048Z,2.80
2022-08-07T08:38:25.890Z,2.67
2022-08-07T08:41:57.898Z,2.70
2022-08-07T08:45:13.206Z,2.80
2022-08-07T08:48:51.642Z,2.50
2022-08-07T08:52:19.808Z,2.73
2022-08-07T08:55:53.310Z,2.42
2022-08-07T08:59:42.328Z,2.47
2022-08-07T09:02:53.853Z,2.45
2022-08-07T09:06:16.833Z,2.30
2022-08-07T09:09:36.751Z,2.30
2022-08-07T09:12:42.271Z,2.45
2022-08-07T09:17:03.821Z,2.40
2022-08-07T09:20:37.241Z,2.33
2022-08-07T09:24:30.861Z,2.30
2022-08-07T09:27:19.995Z,2.37
2022-08-07T09:30:25.587Z,2.13
2022-08-07T09:33:56.539Z,2.80
2022-08-07T09:37:17.093Z,2.60
2022-08-07T09:40:37.912Z,2.50
2022-08-07T09:44:05.486Z,2.30
2022-08-07T09:47:58.190Z,2.28
2022-08-07T09:51:03.318Z,2.35
2022-08-07T09:54:49.419Z,2.10
2022-08-07T09:58:32.357Z,2.25
2022-08-07T10:01:51.081Z,2.60
2022-08-07T10:05:18.086Z,2.13
2022-08-07T10:09:15.205Z,2.72
2022-08-07T10:12:41.672Z,2.25
2022-08-07T10:16:33.384Z,2.63
2022-08-07T10:19:40.373Z,2.40
2022-08-07T10:23:07.803Z,2.45
2022-08-07T10:26:24.621Z,2.70
2022-08-07T10:29:53.064Z,2.10
2022-08-07T10:34:04.855Z,2.70
2022-08-07T10:36:58.514Z,2.20
2022-08-07T10:40:06.098Z,2.42
2022-08-07T10:43:34.836Z,2.10
2022-08-07T10:46:55.870Z,2.45
2022-08-07T10:50:01.012Z,2.50
2022-08-07T10:53:21.535Z,2.80
2022-08-07T10:56:55.220Z,2.70
2022-08-07T11:00:36.561Z,2.70
2022-08-07T11:03:52.580Z,2.40
2022-08-07T11:07:00.424Z,2.30
2022-08-07T11:10:16.863Z,2.40
2022-08-07T11:14:46.296Z,2.20
2022-08-07T11:17:11.163Z,2.20
2022-08-07T11:20:24.411Z,2.78
2022-08-07T11:23:40.958Z,2.30
2022-08-07T11:27:13.453Z,1.90
2022-08-07T11:30:19.413Z,2.53
2022-08-07T11:33:54.079Z,2.08
2022-08-07T11:37:13.204Z,2.30
2022-08-07T11:40:34.209Z,2.42
2022-08-07T11:44:12.627Z,2.80
2022-08-07T11:47:22.433Z,2.50
2022-08-07T11:50:44.551Z,2.80
2022-08-07T11:54:36.275Z,3.03
2022-08-07T11:58:01.875Z,2.55
2022-08-07T12:01:06.652Z,3.50
2022-08-07T12:04:27.700Z,3.65
2022-08-07T12:07:38.698Z,3.40
2022-08-07T12:10:49.992Z,3.25
2022-08-07T12:14:19.719Z,3.22
2022-08-07T12:17:33.708Z,3.00
2022-08-07T12:20:49.365Z,2.67
2022-08-07T12:24:06.956Z,2.67
2022-08-07T12:27:18.673Z,2.20
2022-08-07T12:30:36.411Z,2.28
2022-08-07T12:34:00.699Z,2.30
2022-08-07T12:37:08.202Z,2.38
2022-08-07T12:40:43.914Z,2.30
2022-08-07T12:44:01.734Z,2.35
2022-08-07T12:47:40.560Z,2.05
2022-08-07T12:51:13.037Z,2.17
2022-08-07T12:55:03.821Z,2.65
2022-08-07T12:58:12.929Z,2.60
2022-08-07T13:01:32.153Z,2.70
2022-08-07T13:05:02.342Z,2.38
2022-08-07T13:08:30.968Z,2.30
2022-08-07T13:12:01.812Z,2.90
2022-08-07T13:15:23.681Z,2.20
2022-08-07T13:18:50.688Z,2.50
2022-08-07T13:22:05.148Z,2.20
2022-08-07T13:25:29.550Z,2.00
2022-08-07T13:29:07.037Z,2.72
2022-08-07T13:32:37.415Z,2.38
2022-08-07T13:36:00.932Z,2.60
2022-08-07T13:39:49.096Z,2.63
2022-08-07T13:42:44.186Z,2.53
2022-08-07T13:46:11.285Z,2.50
2022-08-07T13:50:34.995Z,2.90
2022-08-07T13:52:47.049Z,2.42
2022-08-07T13:55:54.896Z,2.30
2022-08-07T13:59:05.539Z,2.70
2022-08-07T14:02:29.607Z,2.63
2022-08-07T14:05:37.287Z,2.60
2022-08-07T14:08:46.194Z,2.47
2022-08-07T14:12:00.971Z,2.75
2022-08-07T14:15:11.129Z,3.10
2022-08-07T14:18:29.831Z,3.22
2022-08-07T14:22:01.475Z,3.10
2022-08-07T14:25:13.390Z,3.10
2022-08-07T14:28:19.179Z,3.45
2022-08-07T14:31:25.383Z,3.40
2022-08-07T14:34:48.206Z,3.10
2022-08-07T14:38:05.602Z,3.55
2022-08-07T14:41:15.141Z,3.50
2022-08-07T14:44:26.116Z,3.88
2022-08-07T14:47:33.917Z,3.13
2022-08-07T14:50:42.943Z,2.97
2022-08-07T14:54:03.756Z,2.97
2022-08-07T14:57:19.146Z,2.75
2022-08-07T15:00:30.314Z,2.25
2022-08-07T15:03:52.609Z,2.50
2022-08-07T15:06:57.405Z,2.47
2022-08-07T15:10:04.942Z,2.33
2022-08-07T15:13:17.295Z,2.33
2022-08-07T15:20:30.549Z,2.43
2022-08-07T15:25:15.912Z,2.30
2022-08-07T15:27:25.045Z,2.20
2022-08-07T15:30:29.072Z,2.17
2022-08-07T15:33:36.000Z,2.20
2022-08-07T15:37:03.964Z,2.73
2022-08-07T15:40:17.323Z,2.30
2022-08-07T15:43:55.707Z,2.60
2022-08-07T15:47:09.046Z,2.42
2022-08-07T15:53:53.014Z,2.60
2022-08-07T15:56:59.786Z,2.22
2022-08-07T16:00:06.452Z,2.40
2022-08-07T16:03:21.549Z,2.22
2022-08-07T16:06:51.769Z,2.28
2022-08-07T16:10:02.853Z,2.60
2022-08-07T16:13:59.382Z,2.33
2022-08-07T16:16:57.058Z,2.40
2022-08-07T16:20:11.976Z,2.40
2022-08-07T16:23:58.329Z,2.33
2022-08-07T16:27:19.107Z,2.20
2022-08-07T16:30:30.298Z,2.22
2022-08-07T16:34:01.305Z,2.40
2022-08-07T16:38:03.683Z,2.15
2022-08-07T16:41:02.086Z,2.10
2022-08-07T16:44:47.519Z,2.27
2022-08-07T16:48:28.725Z,2.35
2022-08-07T16:52:51.833Z,2.50
2022-08-07T16:55:56.516Z,2.33
2022-08-07T16:59:24.551Z,2.53
2022-08-07T17:03:09.329Z,2.00
2022-08-07T17:06:30.732Z,2.42
2022-08-07T17:10:07.791Z,2.60
2022-08-07T17:13:20.242Z,2.15
2022-08-07T17:16:29.944Z,2.30
2022-08-07T17:20:01.736Z,2.40
2022-08-07T17:23:41.547Z,2.33
2022-08-07T17:27:00.035Z,2.30
2022-08-07T17:30:18.116Z,2.55
2022-08-07T17:33:39.057Z,2.42
2022-08-07T17:37:14.368Z,2.53
2022-08-07T17:40:31.983Z,2.33
2022-08-07T17:44:02.261Z,2.33
2022-08-07T17:47:16.922Z,2.40
2022-08-07T17:50:30.163Z,2.35
2022-08-07T17:54:11.353Z,2.60
2022-08-07T17:57:22.892Z,2.45
2022-08-07T18:00:34.563Z,2.72
2022-08-07T18:04:30.846Z,2.60
2022-08-07T18:07:36.431Z,2.80
2022-08-07T18:12:07.645Z,2.17
2022-08-07T18:14:23.821Z,2.63
2022-08-07T18:18:46.694Z,2.70
2022-08-07T18:21:37.355Z,2.65
2022-08-07T18:24:38.073Z,3.10
2022-08-07T18:27:45.583Z,2.50
2022-08-07T18:31:00.575Z,3.03
2022-08-07T18:34:05.903Z,2.80
2022-08-07T18:38:59.367Z,3.00
2022-08-07T18:41:45.194Z,3.38
2022-08-07T18:45:44.735Z,2.97
2022-08-07T18:50:32.457Z,2.83
2022-08-07T18:52:53.707Z,3.22
2022-08-07T18:56:21.007Z,3.03
2022-08-07T19:00:04.117Z,2.90
2022-08-07T19:03:18.761Z,2.83
2022-08-07T19:06:36.347Z,2.80
2022-08-07T19:10:09.971Z,3.00
2022-08-07T19:13:23.403Z,2.80
2022-08-07T19:17:07.939Z,2.83
2022-08-07T19:20:28.862Z,2.90
2022-08-07T19:23:59.394Z,2.92
2022-08-07T19:28:30.911Z,3.00
2022-08-07T19:31:03.997Z,2.88
2022-08-07T19:34:00.746Z,3.10
2022-08-07T19:37:10.274Z,2.80
2022-08-07T19:40:30.994Z,2.85
2022-08-07T19:43:49.341Z,3.08
2022-08-07T19:47:03.068Z,3.33
2022-08-07T19:50:44.102Z,2.97
2022-08-07T19:54:31.420Z,2.80
2022-08-07T19:58:03.554Z,3.33
2022-08-07T20:00:28.944Z,2.80
2022-08-07T20:03:33.569Z,3.22
2022-08-07T20:06:43.144Z,3.25
2022-08-07T20:10:36.511Z,2.87
2022-08-07T20:13:26.765Z,3.42
2022-08-07T20:16:36.142Z,3.00
2022-08-07T20:19:48.087Z,3.00
2022-08-07T20:23:23.375Z,2.58
2022-08-07T20:26:45.306Z,3.40
2022-08-07T20:30:00.668Z,2.85
2022-08-07T20:33:05.509Z,3.00
2022-08-07T20:36:13.360Z,3.13
2022-08-07T20:40:01.046Z,3.53
2022-08-07T20:42:56.231Z,3.17
2022-08-07T20:46:26.125Z,3.40
2022-08-07T20:49:57.799Z,3.50
2022-08-07T20:52:51.517Z,3.72
2022-08-07T20:55:57.187Z,3.53
2022-08-07T20:59:05.260Z,3.00
2022-08-07T21:02:53.845Z,3.33
2022-08-07T21:06:12.449Z,3.45
2022-08-07T21:09:53.234Z,3.33
2022-08-07T21:13:00.784Z,3.65
2022-08-07T21:16:05.357Z,3.20
2022-08-07T21:19:14.069Z,3.47
2022-08-07T21:22:19.482Z,3.50
2022-08-07T21:26:01.512Z,3.53
2022-08-07T21:29:15.929Z,3.50
2022-08-07T21:32:52.072Z,3.80
2022-08-07T21:36:32.430Z,3.90
2022-08-07T21:39:51.828Z,3.28
2022-08-07T21:43:22.911Z,3.03
2022-08-07T21:46:36.724Z,3.72
2022-08-07T21:50:01.297Z,3.27
2022-08-07T21:53:12.311Z,3.75
2022-08-07T21:56:48.128Z,3.47
2022-08-07T22:00:22.956Z,3.35
2022-08-07T22:04:03.883Z,3.83
2022-08-07T22:07:19.175Z,3.50
2022-08-07T22:10:33.665Z,3.80
2022-08-07T22:13:51.037Z,3.60
2022-08-07T22:17:00.876Z,3.67
2022-08-07T22:20:24.715Z,3.70
2022-08-07T22:23:42.235Z,3.27
2022-08-07T22:26:56.798Z,3.38
2022-08-07T22:30:12.706Z,3.33
2022-08-07T22:33:17.291Z,3.40
2022-08-07T22:37:05.036Z,2.90
2022-08-07T22:40:49.994Z,2.57
2022-08-07T22:43:57.919Z,2.80
2022-08-07T22:47:21.656Z,3.17
2022-08-07T22:50:43.120Z,2.90
2022-08-07T22:54:05.631Z,4.05
2022-08-07T22:57:32.232Z,3.17
2022-08-07T23:00:50.820Z,3.40
2022-08-07T23:04:16.275Z,3.10
2022-08-07T23:07:44.964Z,3.15
2022-08-07T23:10:56.304Z,2.97
2022-08-07T23:14:22.721Z,3.20
2022-08-07T23:17:56.060Z,3.50
2022-08-07T23:21:30.144Z,3.20
2022-08-07T23:25:02.089Z,3.40
2022-08-07T23:28:20.508Z,3.35
2022-08-07T23:34:20.188Z,3.40
2022-08-07T23:35:37.239Z,3.13
2022-08-07T23:39:16.740Z,2.90
2022-08-07T23:42:42.434Z,3.15
2022-08-07T23:46:03.611Z,2.88
2022-08-07T23:49:50.054Z,2.90
2022-08-07T23:53:08.602Z,2.83
2022-08-07T23:56:37.839Z,2.90
